Time;durP1;ratioP1;P1;durP2;ratioP2;P2;SDS_P1;SDS_P2;PMS_P1;PMS_P2;Temp;Humidity;BMP_temperature;BMP_pressure;BME280_temperature;BME280_humidity;BME280_pressure;Samples;Min_cycle;Max_cycle;Signal;HPM_P1;HPM_P2
2021/12/04 05:42:23;;;;;;;;;;;;;;;2.43;100.00;97912.31;4929775;23;19927;-71
2021/12/04 05:44:50;;;;;;;;;;;;;;;2.40;100.00;97903.94;4916716;29;19935;-71
2021/12/04 05:47:34;;;;;;;;;;;;;;;2.38;100.00;97903.50;4916978;29;19931;-71
2021/12/04 05:50:20;;;;;;;;;;;;;;;2.46;100.00;97910.81;4917425;29;19938;-71
2021/12/04 05:55:18;;;;;;;;;;;;;;;2.61;100.00;97907.28;4902486;29;19931;-71
2021/12/04 05:57:45;;;;;;;;;;;;;;;2.62;100.00;97904.16;4902076;29;19931;-71
2021/12/04 06:00:18;;;;;;;;;;;;;;;2.64;100.00;97907.34;4912596;29;19938;-71
2021/12/04 06:02:46;;;;;;;;;;;;;;;2.69;100.00;97913.78;4919952;29;19927;-71
2021/12/04 06:05:14;;;;;;;;;;;;;;;2.75;100.00;97920.63;4920855;29;19931;-71
2021/12/04 06:07:41;;;;;;;;;;;;;;;2.83;100.00;97909.41;4920817;29;19935;-71
2021/12/04 06:10:10;;;;;;;;;;;;;;;2.85;100.00;97896.03;4920357;29;19935;-72
2021/12/04 06:12:37;;;;;;;;;;;;;;;2.82;100.00;97887.66;4920370;29;19931;-72
2021/12/04 06:15:05;;;;;;;;;;;;;;;2.78;100.00;97893.13;4921060;29;19954;-71
2021/12/04 06:17:32;;;;;;;;;;;;;;;2.77;100.00;97896.22;4920064;29;20311;-72
2021/12/04 06:22:45;;;;;;;;;;;;;;;2.87;100.00;97909.47;4920356;29;19942;-72
2021/12/04 06:25:14;;;;;;;;;;;;;;;3.02;100.00;97906.72;4920924;29;20227;-72
2021/12/04 06:27:43;;;;;;;;;;;;;;;3.08;100.00;97899.75;4920644;29;19931;-72
2021/12/04 06:30:12;;;;;;;;;;;;;;;3.11;100.00;97895.47;4920629;29;19931;-72
2021/12/04 06:32:40;;;;;;;;;;;;;;;3.00;100.00;97895.25;4919906;29;19938;-72
2021/12/04 06:35:09;;;;;;;;;;;;;;;3.03;100.00;97902.00;4920577;29;19931;-72
2021/12/04 06:37:36;;;;;;;;;;;;;;;3.02;100.00;97898.44;4920247;29;20220;-72
2021/12/04 06:40:04;;;;;;;;;;;;;;;3.04;100.00;97898.06;4920529;29;19938;-72
2021/12/04 06:42:32;;;;;;;;;;;;;;;2.99;100.00;97899.16;4919995;29;19935;-72
2021/12/04 06:45:01;;;;;;;;;;;;;;;3.02;100.00;97898.44;4919658;29;19935;-72
2021/12/04 06:47:30;;;;;;;;;;;;;;;3.04;100.00;97887.03;4910217;29;20228;-72
2021/12/04 06:50:03;;;;;;;;;;;;;;;3.19;100.00;97891.72;4920523;29;19938;-72
2021/12/04 06:52:31;;;;;;;;;;;;;;;3.18;100.00;97892.88;4919822;29;19931;-72
2021/12/04 06:55:01;;;;;;;;;;;;;;;3.24;100.00;97894.22;4920322;29;19927;-72
2021/12/04 06:57:30;;;;;;;;;;;;;;;3.30;100.00;97885.28;4920101;29;19927;-71
2021/12/04 06:59:57;;;;;;;;;;;;;;;3.33;100.00;97874.69;4919824;29;20236;-73
2021/12/04 07:02:25;;;;;;;;;;;;;;;3.36;100.00;97865.66;4918813;29;19931;-72
2021/12/04 07:04:52;;;;;;;;;;;;;;;3.35;100.00;97870.38;4919815;29;20193;-72
2021/12/04 07:07:19;;;;;;;;;;;;;;;3.39;100.00;97868.50;4919246;29;20244;-72
2021/12/04 07:09:47;;;;;;;;;;;;;;;3.40;100.00;97872.06;4920004;29;19938;-72
2021/12/04 07:12:14;;;;;;;;;;;;;;;3.41;100.00;97863.41;4920017;29;19938;-72
2021/12/04 07:14:42;;;;;;;;;;;;;;;3.38;100.00;97872.41;4919844;29;19950;-72
2021/12/04 07:17:09;;;;;;;;;;;;;;;3.37;100.00;97867.25;4919897;29;19928;-72
2021/12/04 07:19:37;;;;;;;;;;;;;;;3.48;100.00;97871.03;4920011;29;20631;-72
2021/12/04 07:22:04;;;;;;;;;;;;;;;3.48;100.00;97866.31;4919858;29;19938;-72
2021/12/04 07:24:32;;;;;;;;;;;;;;;3.50;100.00;97864.00;4919769;29;19935;-73
2021/12/04 07:27:00;;;;;;;;;;;;;;;3.48;100.00;97852.50;4919453;29;19937;-72
2021/12/04 07:29:27;;;;;;;;;;;;;;;3.46;100.00;97854.03;4918937;29;19931;-72
2021/12/04 07:31:54;;;;;;;;;;;;;;;3.46;100.00;97862.31;4919483;29;20209;-72
2021/12/04 07:34:22;;;;;;;;;;;;;;;3.54;100.00;97861.31;4919535;29;20200;-72
2021/12/04 07:36:49;;;;;;;;;;;;;;;3.57;100.00;97857.84;4919663;29;19931;-72
2021/12/04 07:39:16;;;;;;;;;;;;;;;3.63;100.00;97851.66;4919619;29;20331;-72
2021/12/04 07:41:44;;;;;;;;;;;;;;;3.55;100.00;97855.41;4919211;29;19927;-72
2021/12/04 07:44:11;;;;;;;;;;;;;;;3.56;100.00;97854.28;4919314;29;20132;-72
2021/12/04 07:46:39;;;;;;;;;;;;;;;3.53;100.00;97857.75;4919122;29;19931;-72
2021/12/04 07:49:07;;;;;;;;;;;;;;;3.54;100.00;97853.03;4919258;29;19938;-72
2021/12/04 07:51:34;;;;;;;;;;;;;;;3.54;100.00;97853.03;4919531;29;20343;-72
2021/12/04 07:54:02;;;;;;;;;;;;;;;3.57;100.00;97861.38;4919324;29;19942;-72
2021/12/04 07:56:30;;;;;;;;;;;;;;;3.65;100.00;97852.09;4918752;29;19931;-72
2021/12/04 07:58:59;;;;;;;;;;;;;;;3.56;100.00;97856.22;4912110;29;19931;-72
2021/12/04 08:01:26;;;;;;;;;;;;;;;3.65;100.00;97873.41;4911271;29;19928;-72
2021/12/04 08:03:54;;;;;;;;;;;;;;;3.65;100.00;97870.63;4917906;29;19931;-71
2021/12/04 08:06:22;;;;;;;;;;;;;;;3.73;100.00;97864.91;4902970;29;19966;-72
2021/12/04 08:08:53;;;;;;;;;;;;;;;3.69;100.00;97846.63;4904927;29;19928;-72
2021/12/04 08:11:20;;;;;;;;;;;;;;;3.79;100.00;97857.13;4918212;29;19928;-72
2021/12/04 08:13:48;;;;;;;;;;;;;;;3.85;100.00;97858.41;4918633;29;20324;-72
2021/12/04 08:16:15;;;;;;;;;;;;;;;3.88;100.00;97860.47;4916155;29;20201;-72
2021/12/04 08:18:42;;;;;;;;;;;;;;;3.92;100.00;97855.78;4909549;29;19951;-72
2021/12/04 08:21:10;;;;;;;;;;;;;;;3.94;100.00;97867.28;4908598;29;19927;-72
2021/12/04 08:23:38;;;;;;;;;;;;;;;3.87;100.00;97861.59;4917951;29;19931;-72
2021/12/04 08:26:06;;;;;;;;;;;;;;;3.91;100.00;97854.19;4911368;29;21281;-72
2021/12/04 08:28:33;;;;;;;;;;;;;;;3.90;100.00;97866.41;4902840;29;19942;-72
2021/12/04 08:31:01;;;;;;;;;;;;;;;3.93;100.00;97858.22;4909213;29;19931;-72
2021/12/04 08:33:28;;;;;;;;;;;;;;;3.93;100.00;97849.09;4917069;29;19931;-72
2021/12/04 08:35:55;;;;;;;;;;;;;;;3.82;100.00;97845.31;4911051;29;19928;-72
2021/12/04 08:38:23;;;;;;;;;;;;;;;3.74;100.00;97849.13;4912910;29;19940;-72
2021/12/04 08:40:50;;;;;;;;;;;;;;;3.68;100.00;97845.84;4917432;29;19931;-72
2021/12/04 08:43:18;;;;;;;;;;;;;;;3.71;100.00;97847.06;4915136;29;19947;-72
2021/12/04 08:45:45;;;;;;;;;;;;;;;3.76;100.00;97847.59;4916174;29;20328;-72
2021/12/04 08:48:12;;;;;;;;;;;;;;;3.74;100.00;97852.66;4906527;29;20109;-72
2021/12/04 08:50:40;;;;;;;;;;;;;;;3.78;100.00;97845.25;4915496;29;19935;-71
2021/12/04 08:53:07;;;;;;;;;;;;;;;3.84;100.00;97840.22;4917068;29;19931;-72
2021/12/04 08:55:37;;;;;;;;;;;;;;;3.85;100.00;97836.28;4904258;29;19942;-72
2021/12/04 08:58:06;;;;;;;;;;;;;;;3.78;100.00;97828.66;4917593;29;20206;-72
2021/12/04 09:00:39;;;;;;;;;;;;;;;3.75;100.00;97823.84;4908158;29;19935;-72
2021/12/04 09:03:08;;;;;;;;;;;;;;;3.76;100.00;97816.38;4916611;29;19931;-72
2021/12/04 09:05:37;;;;;;;;;;;;;;;3.74;100.00;97829.75;4916930;29;20232;-72
2021/12/04 09:08:07;;;;;;;;;;;;;;;3.79;100.00;97823.94;4916901;29;19931;-72
2021/12/04 09:10:34;;;;;;;;;;;;;;;3.81;100.00;97835.44;4916394;29;19951;-72
2021/12/04 09:13:03;;;;;;;;;;;;;;;3.69;100.00;97824.53;4914892;29;19931;-72
2021/12/04 09:15:35;;;;;;;;;;;;;;;3.72;100.00;97824.56;4912303;29;19935;-72
2021/12/04 09:18:03;;;;;;;;;;;;;;;3.73;100.00;97823.41;4906703;29;19942;-72
2021/12/04 09:20:31;;;;;;;;;;;;;;;3.77;100.00;97818.75;4911779;29;20216;-72
2021/12/04 09:23:02;;;;;;;;;;;;;;;3.79;100.00;97821.94;4913486;29;19935;-72
2021/12/04 09:25:31;;;;;;;;;;;;;;;3.78;100.00;97823.13;4908476;29;19935;-72
2021/12/04 09:37:02;;;;;;;;;;;;;;;3.50;100.00;97813.44;4912770;29;19946;-72
2021/12/04 10:20:48;;;;;;;;;;;;;;;3.14;100.00;97737.31;4912642;29;20335;-72
2021/12/04 10:34:34;;;;;;;;;;;;;;;3.48;100.00;97707.97;4901728;29;20276;-71
2021/12/04 10:37:05;;;;;;;;;;;;;;;3.54;100.00;97717.59;4908009;29;19966;-72
2021/12/04 10:39:32;;;;;;;;;;;;;;;3.46;100.00;97715.84;4915699;29;20226;-72
2021/12/04 10:42:02;;;;;;;;;;;;;;;3.51;100.00;97694.25;4912031;29;19938;-77
2021/12/04 10:44:31;;;;;;;;;;;;;;;3.64;100.00;97700.41;4907789;29;19927;-76
2021/12/04 10:46:58;;;;;;;;;;;;;;;3.62;100.00;97700.75;4908327;29;20494;-76
2021/12/04 10:49:31;;;;;;;;;;;;;;;3.59;100.00;97709.00;4915514;29;20001;-76
2021/12/04 10:52:03;;;;;;;;;;;;;;;3.68;100.00;97704.03;4913142;29;19931;-76
2021/12/04 10:54:38;;;;;;;;;;;;;;;3.70;100.00;97698.91;4912175;29;19935;-75
2021/12/04 10:57:36;;;;;;;;;;;;;;;3.78;100.00;97692.34;4909555;29;19931;-77
2021/12/04 11:02:43;;;;;;;;;;;;;;;3.86;100.00;97685.78;4918549;29;19931;-77
2021/12/04 11:26:03;;;;;;;;;;;;;;;4.17;100.00;97644.03;4917812;29;19931;-72
2021/12/04 11:46:41;;;;;;;;;;;;;;;4.59;100.00;97618.94;4917186;29;19931;-72
2021/12/04 11:49:19;;;;;;;;;;;;;;;4.56;100.00;97614.13;4909219;29;19938;-72
2021/12/04 11:51:53;;;;;;;;;;;;;;;4.60;100.00;97610.25;4914730;29;19927;-71
2021/12/04 11:54:20;;;;;;;;;;;;;;;4.55;100.00;97616.09;4912462;29;19935;-72
2021/12/04 11:56:57;;;;;;;;;;;;;;;4.50;100.00;97604.53;4918706;29;19935;-72
2021/12/04 11:59:28;;;;;;;;;;;;;;;4.51;100.00;97606.16;4908241;29;19935;-71
2021/12/04 12:01:57;;;;;;;;;;;;;;;4.48;100.00;97620.75;4916748;29;19933;-72
2021/12/04 12:04:33;;;;;;;;;;;;;;;4.41;100.00;97610.38;4915223;29;19941;-72
2021/12/04 12:07:09;;;;;;;;;;;;;;;4.37;100.00;97605.97;4909941;29;20005;-72
2021/12/04 12:09:39;;;;;;;;;;;;;;;4.35;100.00;97606.31;4908294;29;19928;-72
2021/12/04 12:12:09;;;;;;;;;;;;;;;4.33;100.00;97616.16;4915459;29;19931;-72
2021/12/04 12:14:46;;;;;;;;;;;;;;;4.38;100.00;97599.25;4918109;29;20224;-72
2021/12/04 12:17:15;;;;;;;;;;;;;;;4.35;100.00;97589.72;4912206;29;19935;-72
2021/12/04 12:19:50;;;;;;;;;;;;;;;4.35;100.00;97586.94;4912024;29;19931;-72
2021/12/04 12:22:28;;;;;;;;;;;;;;;4.33;100.00;97589.28;4912342;29;19997;-72
2021/12/04 12:25:07;;;;;;;;;;;;;;;4.36;100.00;97585.78;4909948;29;19934;-72
2021/12/04 12:38:35;;;;;;;;;;;;;;;4.37;100.00;97567.22;4917049;29;19942;-77
2021/12/04 12:41:10;;;;;;;;;;;;;;;4.52;100.00;97564.25;4900656;29;19951;-76
2021/12/04 12:43:38;;;;;;;;;;;;;;;4.52;100.00;97547.63;4880012;29;19939;-77
2021/12/04 12:46:05;;;;;;;;;;;;;;;4.32;100.00;97539.88;4898629;29;19935;-75
2021/12/04 12:49:02;;;;;;;;;;;;;;;4.13;100.00;97523.41;4901010;29;19935;-75
2021/12/04 12:51:31;;;;;;;;;;;;;;;4.14;100.00;97516.69;4889951;29;19938;-77
2021/12/04 12:54:00;;;;;;;;;;;;;;;4.20;100.00;97529.03;4903856;29;19939;-77
2021/12/04 12:56:30;;;;;;;;;;;;;;;4.29;100.00;97505.44;4905375;29;19939;-77
2021/12/04 12:59:19;;;;;;;;;;;;;;;4.31;100.00;97505.84;4884628;29;19939;-77
2021/12/04 13:13:27;;;;;;;;;;;;;;;4.41;100.00;97490.56;4898913;29;19931;-71
2021/12/04 13:16:00;;;;;;;;;;;;;;;4.46;100.00;97499.31;4901035;29;19939;-71
2021/12/04 13:18:28;;;;;;;;;;;;;;;4.44;100.00;97485.06;4891742;29;19932;-71
2021/12/04 13:20:58;;;;;;;;;;;;;;;4.51;100.00;97484.34;4898573;29;20313;-71
2021/12/04 13:23:26;;;;;;;;;;;;;;;4.45;100.00;97481.13;4888267;29;19928;-71
2021/12/04 13:25:55;;;;;;;;;;;;;;;4.49;100.00;97481.97;4894494;29;19939;-71
2021/12/04 13:28:29;;;;;;;;;;;;;;;4.59;100.00;97470.22;4893620;29;19942;-71
2021/12/04 13:31:00;;;;;;;;;;;;;;;4.58;100.00;97465.84;4896192;29;19942;-71
2021/12/04 13:33:29;;;;;;;;;;;;;;;4.57;100.00;97472.56;4896395;29;20001;-71
2021/12/04 13:35:56;;;;;;;;;;;;;;;4.57;100.00;97471.78;4889912;29;19959;-71
2021/12/04 13:38:25;;;;;;;;;;;;;;;4.58;100.00;97468.63;4892835;29;19931;-71
2021/12/04 13:40:54;;;;;;;;;;;;;;;4.56;100.00;97470.97;4890756;29;19932;-71
2021/12/04 13:43:22;;;;;;;;;;;;;;;4.53;100.00;97471.72;4904406;29;19939;-72
2021/12/04 13:46:00;;;;;;;;;;;;;;;4.52;100.00;97463.81;4906214;29;20554;-71
2021/12/04 13:48:29;;;;;;;;;;;;;;;4.40;100.00;97459.31;4907829;29;19936;-71
2021/12/04 13:50:59;;;;;;;;;;;;;;;4.45;100.00;97456.19;4910542;29;19970;-71
2021/12/04 13:53:26;;;;;;;;;;;;;;;4.42;100.00;97453.41;4906332;29;19927;-71
2021/12/04 13:55:56;;;;;;;;;;;;;;;4.46;100.00;97448.69;4903920;29;19936;-72
2021/12/04 13:58:23;;;;;;;;;;;;;;;4.53;100.00;97454.31;4915725;29;19931;-72
2021/12/04 14:00:51;;;;;;;;;;;;;;;4.55;100.00;97457.50;4916867;29;19927;-71
2021/12/04 14:03:19;;;;;;;;;;;;;;;4.59;100.00;97463.88;4908388;29;19938;-71
2021/12/04 14:05:48;;;;;;;;;;;;;;;4.64;100.00;97461.56;4903182;29;19938;-71
2021/12/04 14:08:15;;;;;;;;;;;;;;;4.55;100.00;97446.41;4900588;29;19931;-72
2021/12/04 14:10:44;;;;;;;;;;;;;;;4.49;100.00;97443.22;4900473;29;19931;-75
2021/12/04 14:13:13;;;;;;;;;;;;;;;4.48;100.00;97457.41;4909770;29;19943;-77
2021/12/04 14:15:44;;;;;;;;;;;;;;;4.52;100.00;97456.28;4915506;29;19942;-75
2021/12/04 14:18:15;;;;;;;;;;;;;;;4.48;100.00;97449.09;4914273;29;20014;-72
2021/12/04 14:20:44;;;;;;;;;;;;;;;4.41;100.00;97447.06;4914467;29;19938;-72
2021/12/04 14:23:12;;;;;;;;;;;;;;;4.40;100.00;97451.00;4913779;29;19961;-72
2021/12/04 14:25:44;;;;;;;;;;;;;;;4.46;100.00;97445.94;4917665;29;19931;-72
2021/12/04 14:28:13;;;;;;;;;;;;;;;4.49;100.00;97437.69;4917975;29;19927;-72
2021/12/04 14:30:44;;;;;;;;;;;;;;;4.50;100.00;97439.25;4920135;29;20297;-73
2021/12/04 14:33:15;;;;;;;;;;;;;;;4.54;100.00;97437.34;4919055;29;20050;-72
2021/12/04 14:35:44;;;;;;;;;;;;;;;4.57;100.00;97430.25;4920522;29;19938;-72
2021/12/04 14:38:14;;;;;;;;;;;;;;;4.56;100.00;97426.69;4919164;29;19952;-72
2021/12/04 14:40:52;;;;;;;;;;;;;;;4.54;100.00;97423.50;4914959;29;19927;-72
2021/12/04 14:43:21;;;;;;;;;;;;;;;4.57;100.00;97424.72;4916087;29;20220;-72
2021/12/04 14:45:51;;;;;;;;;;;;;;;4.53;100.00;97415.56;4917479;29;19935;-73
2021/12/04 14:48:21;;;;;;;;;;;;;;;4.60;100.00;97410.88;4904962;29;20007;-72
2021/12/04 14:50:51;;;;;;;;;;;;;;;4.60;100.00;97410.88;4919538;29;19931;-72
2021/12/04 14:53:19;;;;;;;;;;;;;;;4.56;100.00;97404.53;4919073;29;19931;-72
2021/12/04 14:55:49;;;;;;;;;;;;;;;4.58;100.00;97384.75;4919935;29;19950;-72
2021/12/04 14:58:18;;;;;;;;;;;;;;;4.65;100.00;97391.16;4918810;29;19943;-72
2021/12/04 15:00:47;;;;;;;;;;;;;;;4.63;100.00;97385.22;4915143;29;19935;-72
2021/12/04 15:03:28;;;;;;;;;;;;;;;4.61;100.00;97368.19;4913566;29;19934;-72
2021/12/04 15:05:59;;;;;;;;;;;;;;;4.58;100.00;97373.69;4916467;29;19931;-72
2021/12/04 15:08:28;;;;;;;;;;;;;;;4.62;100.00;97375.31;4919428;29;19938;-72
2021/12/04 15:10:55;;;;;;;;;;;;;;;4.59;100.00;97378.06;4917363;29;19935;-72
2021/12/04 15:13:24;;;;;;;;;;;;;;;4.54;100.00;97373.66;4904991;29;19939;-72
2021/12/04 15:15:53;;;;;;;;;;;;;;;4.55;100.00;97374.44;4908720;29;19935;-72
2021/12/04 15:18:24;;;;;;;;;;;;;;;4.56;100.00;97374.06;4917042;29;19934;-72
2021/12/04 15:20:59;;;;;;;;;;;;;;;4.57;100.00;97372.88;4918542;29;19928;-72
2021/12/04 15:23:29;;;;;;;;;;;;;;;4.52;100.00;97383.53;4916663;29;19931;-73
2021/12/04 15:26:00;;;;;;;;;;;;;;;4.42;100.00;97401.63;4919038;29;19931;-72
2021/12/04 15:28:30;;;;;;;;;;;;;;;4.50;100.00;97394.16;4919324;29;19934;-72
2021/12/04 15:30:59;;;;;;;;;;;;;;;4.51;100.00;97387.47;4918929;29;19931;-72
2021/12/04 15:33:26;;;;;;;;;;;;;;;4.53;100.00;97401.72;4919239;29;19931;-72
2021/12/04 15:35:55;;;;;;;;;;;;;;;4.58;100.00;97384.75;4919844;29;19931;-72
2021/12/04 15:38:36;;;;;;;;;;;;;;;4.54;100.00;97393.03;4918167;29;19931;-72
2021/12/04 15:46:09;;;;;;;;;;;;;;;4.53;100.00;97399.75;4919331;29;19931;-73
2021/12/04 15:52:45;;;;;;;;;;;;;;;4.45;100.00;97411.91;4918860;29;19931;-72
2021/12/04 15:54:38;;;;;;;;;;;;;;;4.42;100.00;97400.81;4918433;29;19938;-72
2021/12/04 15:57:20;;;;;;;;;;;;;;;4.43;100.00;97402.38;4918675;29;19935;-72
2021/12/04 15:59:50;;;;;;;;;;;;;;;4.38;100.00;97409.06;4918711;29;19931;-73
2021/12/04 16:02:21;;;;;;;;;;;;;;;4.43;100.00;97410.69;4917744;29;19931;-72
2021/12/04 16:04:50;;;;;;;;;;;;;;;4.47;100.00;97401.28;4918985;29;20232;-72
2021/12/04 16:07:25;;;;;;;;;;;;;;;4.45;100.00;97408.38;4918170;29;20256;-73
2021/12/04 16:09:52;;;;;;;;;;;;;;;4.45;100.00;97414.69;4918854;29;19938;-73
2021/12/04 16:12:21;;;;;;;;;;;;;;;4.43;100.00;97405.16;4918153;29;19931;-72
2021/12/04 16:14:53;;;;;;;;;;;;;;;4.48;100.00;97402.06;4909304;29;20261;-72
2021/12/04 16:17:21;;;;;;;;;;;;;;;4.35;100.00;97398.75;4918227;29;20359;-72
2021/12/04 16:19:52;;;;;;;;;;;;;;;4.27;100.00;97388.00;4914340;29;19931;-72
2021/12/04 16:22:19;;;;;;;;;;;;;;;4.14;100.00;97379.16;4913700;29;19934;-73
2021/12/04 16:24:49;;;;;;;;;;;;;;;4.06;100.00;97373.94;4906193;29;19931;-73
2021/12/04 16:29:54;;;;;;;;;;;;;;;4.15;100.00;97377.19;4916835;29;19927;-73
2021/12/04 16:35:23;;;;;;;;;;;;;;;4.25;100.00;97382.06;4917826;29;19938;-72
2021/12/04 16:37:50;;;;;;;;;;;;;;;4.22;100.00;97383.59;4916865;29;20229;-72
2021/12/04 16:40:21;;;;;;;;;;;;;;;4.26;100.00;97389.16;4914605;29;19931;-72
2021/12/04 16:43:12;;;;;;;;;;;;;;;4.27;100.00;97382.47;4912427;29;19935;-72
2021/12/04 16:45:47;;;;;;;;;;;;;;;4.15;100.00;97371.66;4905560;29;19931;-72
2021/12/04 16:48:16;;;;;;;;;;;;;;;4.13;100.00;97363.75;4901104;29;19935;-72
2021/12/04 16:56:23;;;;;;;;;;;;;;;3.90;100.00;97340.94;4908606;29;19931;-73
2021/12/04 16:58:52;;;;;;;;;;;;;;;3.86;100.00;97337.34;4907487;29;19932;-72
2021/12/04 17:01:20;;;;;;;;;;;;;;;3.95;100.00;97335.06;4909991;29;19934;-73
2021/12/04 17:03:48;;;;;;;;;;;;;;;4.05;100.00;97334.41;4905910;29;19927;-72
2021/12/04 17:06:15;;;;;;;;;;;;;;;4.05;100.00;97331.63;4908848;29;19931;-72
2021/12/04 17:08:43;;;;;;;;;;;;;;;4.04;100.00;97330.03;4912566;29;19938;-72
2021/12/04 17:11:10;;;;;;;;;;;;;;;4.06;100.00;97332.44;4909846;29;20228;-72
2021/12/04 17:13:38;;;;;;;;;;;;;;;4.01;100.00;97330.78;4906029;29;19938;-73
2021/12/04 17:16:05;;;;;;;;;;;;;;;4.14;100.00;97332.13;4911685;29;19927;-74
2021/12/04 17:18:39;;;;;;;;;;;;;;;4.09;100.00;97334.44;4908955;29;19931;-73
2021/12/04 17:21:06;;;;;;;;;;;;;;;4.06;100.00;97326.91;4916048;29;19935;-73
2021/12/04 17:23:33;;;;;;;;;;;;;;;4.03;100.00;97319.38;4906846;29;19932;-73
2021/12/04 17:26:01;;;;;;;;;;;;;;;3.87;100.00;97320.38;4906858;29;19934;-72
2021/12/04 17:28:34;;;;;;;;;;;;;;;3.78;100.00;97286.69;4908575;29;19932;-73
2021/12/04 17:31:05;;;;;;;;;;;;;;;3.70;100.00;97282.25;4905657;29;19948;-72
2021/12/04 17:33:32;;;;;;;;;;;;;;;3.52;100.00;97278.47;4910531;29;19932;-72
2021/12/04 17:35:59;;;;;;;;;;;;;;;3.60;100.00;97293.19;4903294;29;19932;-72
2021/12/04 17:38:27;;;;;;;;;;;;;;;3.48;100.00;97294.22;4905920;29;20240;-73
2021/12/04 17:40:54;;;;;;;;;;;;;;;3.43;100.00;97299.28;4908539;29;19931;-72
2021/12/04 17:43:21;;;;;;;;;;;;;;;3.46;100.00;97287.47;4901898;29;19954;-73
2021/12/04 17:45:49;;;;;;;;;;;;;;;3.45;100.00;97283.91;4908196;29;19935;-73
2021/12/04 17:48:16;;;;;;;;;;;;;;;3.44;100.00;97296.16;4908400;29;20552;-73
2021/12/04 17:50:44;;;;;;;;;;;;;;;3.34;100.00;97299.59;4908650;29;19931;-72
2021/12/04 17:53:12;;;;;;;;;;;;;;;3.40;100.00;97311.09;4901968;29;20213;-73
2021/12/04 17:55:39;;;;;;;;;;;;;;;3.48;100.00;97315.53;4903501;29;19956;-73
2021/12/04 17:58:07;;;;;;;;;;;;;;;3.46;100.00;97310.41;4905990;29;19935;-73
2021/12/04 18:00:38;;;;;;;;;;;;;;;3.49;100.00;97306.09;4910971;29;19928;-72
2021/12/04 18:03:07;;;;;;;;;;;;;;;3.52;100.00;97310.88;4912281;29;19931;-73
2021/12/04 18:05:35;;;;;;;;;;;;;;;3.65;100.00;97317.72;4918707;29;19927;-73
2021/12/04 18:08:03;;;;;;;;;;;;;;;3.60;100.00;97309.75;4917016;29;19939;-73
2021/12/04 18:10:32;;;;;;;;;;;;;;;3.53;100.00;97312.44;4908984;29;19938;-72
2021/12/04 18:13:02;;;;;;;;;;;;;;;3.55;100.00;97301.81;4901238;29;19938;-80
2021/12/04 18:15:33;;;;;;;;;;;;;;;3.61;100.00;97287.28;4910784;29;19934;-80
2021/12/04 18:18:01;;;;;;;;;;;;;;;3.65;100.00;97287.31;4914321;29;19927;-80
2021/12/04 18:20:28;;;;;;;;;;;;;;;3.62;100.00;97293.63;4911176;29;19931;-73
2021/12/04 18:22:57;;;;;;;;;;;;;;;3.60;100.00;97299.50;4906716;29;19931;-72
2021/12/04 18:25:24;;;;;;;;;;;;;;;3.60;100.00;97295.94;4911273;29;20332;-72
2021/12/04 18:27:54;;;;;;;;;;;;;;;3.65;100.00;97292.84;4913764;29;19939;-73
2021/12/04 18:30:23;;;;;;;;;;;;;;;3.60;100.00;97296.75;4910806;29;19931;-73
2021/12/04 18:32:52;;;;;;;;;;;;;;;3.55;100.00;97324.72;4912297;29;19935;-73
2021/12/04 18:35:20;;;;;;;;;;;;;;;3.59;100.00;97328.34;4906812;29;20299;-72
2021/12/04 18:37:49;;;;;;;;;;;;;;;3.64;100.00;97327.22;4911215;29;19938;-72
2021/12/04 18:40:17;;;;;;;;;;;;;;;3.62;100.00;97324.03;4911783;29;20229;-73
2021/12/04 18:42:45;;;;;;;;;;;;;;;3.65;100.00;97326.03;4903326;29;19935;-73
2021/12/04 18:45:13;;;;;;;;;;;;;;;3.52;100.00;97310.88;4919256;29;20532;-73
2021/12/04 18:47:40;;;;;;;;;;;;;;;3.49;100.00;97306.09;4919295;29;19928;-72
2021/12/04 18:50:09;;;;;;;;;;;;;;;3.53;100.00;97298.63;4919520;29;20264;-73
2021/12/04 18:52:36;;;;;;;;;;;;;;;3.63;100.00;97289.66;4914960;29;19931;-72
2021/12/04 18:55:06;;;;;;;;;;;;;;;3.51;100.00;97290.72;4909867;29;19931;-73
2021/12/04 18:57:34;;;;;;;;;;;;;;;3.35;100.00;97292.88;4912653;29;19935;-73
2021/12/04 19:00:06;;;;;;;;;;;;;;;3.27;100.00;97311.34;4907839;29;19931;-73
2021/12/04 19:02:35;;;;;;;;;;;;;;;3.26;100.00;97328.28;4905498;29;19927;-72
2021/12/04 19:05:03;;;;;;;;;;;;;;;3.23;100.00;97315.19;4910721;29;19938;-72
2021/12/04 19:07:31;;;;;;;;;;;;;;;3.27;100.00;97316.88;4907529;29;19931;-72
2021/12/04 19:09:58;;;;;;;;;;;;;;;3.28;100.00;97325.94;4903136;29;19931;-70
2021/12/04 19:12:26;;;;;;;;;;;;;;;3.20;100.00;97313.97;4909613;29;19930;-70
2021/12/04 19:14:54;;;;;;;;;;;;;;;3.18;100.00;97285.94;4910433;29;19939;-70
2021/12/04 19:17:22;;;;;;;;;;;;;;;3.14;100.00;97289.84;4907800;29;19935;-70
2021/12/04 19:19:49;;;;;;;;;;;;;;;3.12;100.00;97294.94;4911766;29;19937;-70
2021/12/04 19:22:17;;;;;;;;;;;;;;;3.14;100.00;97295.34;4910862;29;20368;-70
2021/12/04 19:24:44;;;;;;;;;;;;;;;3.20;100.00;97277.31;4909009;29;19931;-70
2021/12/04 19:27:12;;;;;;;;;;;;;;;3.21;100.00;97268.63;4911163;29;19935;-71
2021/12/04 19:29:43;;;;;;;;;;;;;;;3.13;100.00;97268.91;4908501;29;19927;-71
2021/12/04 19:32:26;;;;;;;;;;;;;;;3.15;100.00;97277.63;4915532;29;20587;-72
2021/12/04 19:51:11;;;;;;;;;;;;;;;2.93;100.00;97284.03;4903892;29;19931;-70
2021/12/04 19:54:07;;;;;;;;;;;;;;;2.95;100.00;97276.97;4913820;29;19931;-69
2021/12/04 19:56:36;;;;;;;;;;;;;;;2.99;100.00;97280.56;4910229;29;19951;-70
2021/12/04 19:59:10;;;;;;;;;;;;;;;2.96;100.00;97286.81;4907686;29;20040;-71
2021/12/04 20:01:51;;;;;;;;;;;;;;;2.93;100.00;97289.53;4909566;29;19942;-70
2021/12/04 20:04:37;;;;;;;;;;;;;;;3.01;100.00;97280.16;4915652;29;19942;-70
2021/12/04 20:15:20;;;;;;;;;;;;;;;3.00;100.00;97259.25;4910147;29;19931;-70
2021/12/04 20:17:48;;;;;;;;;;;;;;;2.93;100.00;97281.25;4904480;29;20348;-71
2021/12/04 20:20:17;;;;;;;;;;;;;;;2.87;100.00;97275.25;4911870;29;19931;-71
2021/12/04 20:22:45;;;;;;;;;;;;;;;2.87;100.00;97274.44;4916605;29;20321;-71
2021/12/04 20:25:19;;;;;;;;;;;;;;;2.95;100.00;97267.88;4914554;29;19927;-69
2021/12/04 20:27:53;;;;;;;;;;;;;;;2.90;100.00;97271.75;4911475;29;19936;-68
2021/12/04 20:30:37;;;;;;;;;;;;;;;2.89;100.00;97256.34;4908955;29;19931;-69
2021/12/04 21:51:45;;;;;;;;;;;;;;;2.89;100.00;97214.94;4911155;29;20052;-68
2021/12/04 21:54:13;;;;;;;;;;;;;;;2.87;100.00;97216.47;4902866;29;19939;-68
2021/12/04 22:10:39;;;;;;;;;;;;;;;2.94;100.00;97188.97;4902610;29;19931;-67
2021/12/04 22:13:17;;;;;;;;;;;;;;;2.95;100.00;97190.56;4902713;29;19939;-69
2021/12/04 22:18:32;;;;;;;;;;;;;;;2.89;100.00;97186.53;4917639;29;19931;-68
2021/12/04 22:24:13;;;;;;;;;;;;;;;2.93;100.00;97179.91;4902084;29;19934;-68
2021/12/04 22:59:29;;;;;;;;;;;;;;;3.03;100.00;97189.50;4919714;29;19938;-69
2021/12/04 23:02:12;;;;;;;;;;;;;;;3.06;100.00;97189.50;4916446;29;19931;-68
2021/12/04 23:15:42;;;;;;;;;;;;;;;3.40;100.00;97189.53;4919596;29;19931;-68
2021/12/04 23:34:39;;;;;;;;;;;;;;;3.50;100.00;97177.78;4906699;29;19931;-69
